This is the latest recevied weather packets stored in our database for station/object SP3WRO-2. If no packets are shown the sender has not sent any weather packets the latest 10 day(s).
| Time | Temp. | Humidity | Pressure | Rain* | Wind** | Luminosity | Snow |
|---|---|---|---|---|---|---|---|
| 1787649847 | 19.44° C | 70% | 1017.2 hPa | 4.83 mm | - | 639 W/m² | - |
| 1787648945 | 19.44° C | 70% | 1017.2 hPa | 4.83 mm | - | 613 W/m² | - |
| 1787648044 | 18.89° C | 72% | 1017.2 hPa | 4.83 mm | - | 584 W/m² | - |
| 1787647142 | 18.89° C | 73% | 1017.2 hPa | 4.83 mm | - | 557 W/m² | - |
| 1787646241 | 18.33° C | 74% | 1017.3 hPa | 4.83 mm | - | 529 W/m² | - |
| 1787645339 | 18.33° C | 73% | 1017.4 hPa | 4.83 mm | - | 502 W/m² | - |
| 1787644439 | 17.78° C | 79% | 1017.5 hPa | 4.83 mm | - | 468 W/m² | - |
| 1787643538 | 16.67° C | 83% | 1017.3 hPa | 4.83 mm | - | 428 W/m² | - |
| 1787642637 | 16.67° C | 85% | 1017.4 hPa | 4.83 mm | - | 386 W/m² | - |
| 1787641736 | 15.56° C | 87% | 1017.5 hPa | 4.83 mm | - | 341 W/m² | - |
| 1787640834 | 14.44° C | 94% | 1017.5 hPa | 4.83 mm | - | 293 W/m² | - |
| 1787639933 | 12.78° C | 98% | 1017.6 hPa | 4.83 mm | - | 251 W/m² | - |
| 1787639032 | 11.67° C | 98% | 1017.8 hPa | 4.83 mm | - | 176 W/m² | - |
| 1787638131 | 11.11° C | 98% | 1017.8 hPa | 4.83 mm | - | 118 W/m² | - |
| 1787637230 | 11.11° C | 98% | 1017.8 hPa | 4.83 mm | - | 133 W/m² | - |
| 1787636328 | 10.56° C | 98% | 1017.5 hPa | 4.83 mm | - | 108 W/m² | - |
| 1787635427 | 10° C | 98% | 1017.7 hPa | 4.83 mm | - | 83 W/m² | - |
| 1787634527 | 9.44° C | 98% | 1017.8 hPa | 4.83 mm | - | 69 W/m² | - |
| 1787633626 | 9.44° C | 98% | 1017.4 hPa | 4.83 mm | - | 46 W/m² | - |
| 1787632725 | 8.89° C | 98% | 1017.4 hPa | 4.83 mm | - | 30 W/m² | - |
| 1787631824 | 8.89° C | 98% | 1017.2 hPa | 4.83 mm | - | 19 W/m² | - |
| 1787630923 | 8.89° C | 98% | 1017.3 hPa | 4.83 mm | - | 9 W/m² | - |
| 1787630023 | 8.33° C | 98% | 1017.1 hPa | 4.83 mm | - | 4 W/m² | - |
| 1787629121 | 8.33° C | 98% | 1017.2 hPa | 4.83 mm | - | 1 W/m² | - |
| 1787628220 | 8.89° C | 98% | 1017 hPa | 4.83 mm | - | - | - |
* Rain latest 24 hours (hover to see other rain measurements)
** Current wind speed in m/s (hover to see current wind gust speed)